createdAt,value
2019-02-18T00:00:54.668Z,101219.00
2019-02-18T00:03:27.424Z,101184.00
2019-02-18T00:06:00.281Z,101184.00
2019-02-18T00:08:33.253Z,101177.00
2019-02-18T00:11:06.145Z,101176.00
2019-02-18T00:13:39.057Z,101196.00
2019-02-18T00:16:11.729Z,101186.00
2019-02-18T00:18:44.831Z,101189.00
2019-02-18T00:21:17.715Z,101185.00
2019-02-18T00:23:50.628Z,101182.00
2019-02-18T00:26:23.373Z,101182.00
2019-02-18T00:28:56.042Z,101170.00
2019-02-18T00:31:29.042Z,101171.00
2019-02-18T00:34:02.830Z,101177.00
2019-02-18T00:36:35.758Z,101171.00
2019-02-18T00:39:09.950Z,101169.00
2019-02-18T00:41:42.628Z,101177.00
2019-02-18T00:44:15.983Z,101176.00
2019-02-18T00:46:48.791Z,101175.00
2019-02-18T00:49:21.597Z,101179.00
2019-02-18T00:51:55.242Z,101180.00
2019-02-18T00:54:27.856Z,101172.00
2019-02-18T00:57:00.878Z,101176.00
2019-02-18T00:59:34.308Z,101177.00
2019-02-18T01:02:08.262Z,101168.00
2019-02-18T01:04:42.061Z,101178.00
2019-02-18T01:07:15.280Z,101177.00
2019-02-18T01:09:48.120Z,101167.00
2019-02-18T01:12:20.782Z,101183.00
2019-02-18T01:14:54.294Z,101170.00
2019-02-18T01:17:28.163Z,101161.00
2019-02-18T01:20:01.376Z,101164.00
2019-02-18T01:22:34.767Z,101174.00
2019-02-18T01:25:09.004Z,101169.00
2019-02-18T01:27:42.856Z,101163.00
2019-02-18T01:30:17.887Z,101162.00
2019-02-18T01:32:51.563Z,101173.00
2019-02-18T01:35:25.717Z,101172.00
2019-02-18T01:38:00.321Z,101164.00
2019-02-18T01:40:33.786Z,101163.00
2019-02-18T01:43:06.864Z,101164.00
2019-02-18T01:45:40.687Z,101169.00
2019-02-18T01:48:14.912Z,101162.00
2019-02-18T01:50:47.708Z,101168.00
2019-02-18T01:53:20.573Z,101166.00
2019-02-18T01:55:53.476Z,101154.00
2019-02-18T01:58:26.126Z,101164.00
2019-02-18T02:00:59.073Z,101164.00
2019-02-18T02:03:32.106Z,101157.00
2019-02-18T02:06:05.239Z,101158.00
2019-02-18T02:08:38.637Z,101159.00
2019-02-18T02:11:12.587Z,101148.00
2019-02-18T02:13:45.418Z,101145.00
2019-02-18T02:16:18.065Z,101146.00
2019-02-18T02:18:54.177Z,101152.00
2019-02-18T02:21:27.059Z,101131.00
2019-02-18T02:23:59.866Z,101138.00
2019-02-18T02:26:33.499Z,101131.00
2019-02-18T02:29:06.714Z,101130.00
2019-02-18T02:31:39.485Z,101130.00
2019-02-18T02:34:13.389Z,101120.00
2019-02-18T02:36:48.112Z,101118.00
2019-02-18T02:39:21.439Z,101118.00
2019-02-18T02:41:54.743Z,101110.00
2019-02-18T02:44:27.756Z,101114.00
2019-02-18T02:47:00.467Z,101119.00
2019-02-18T02:49:33.471Z,101138.00
2019-02-18T02:52:06.655Z,101146.00
2019-02-18T02:54:40.037Z,101141.00
2019-02-18T02:57:13.809Z,101132.00
2019-02-18T02:59:47.244Z,101119.00
2019-02-18T03:02:20.536Z,101131.00
2019-02-18T03:04:53.878Z,101120.00
2019-02-18T03:07:26.752Z,101128.00
2019-02-18T03:09:59.579Z,101127.00
2019-02-18T03:12:32.383Z,101119.00
2019-02-18T03:15:05.386Z,101116.00
2019-02-18T03:17:38.355Z,101110.00
2019-02-18T03:20:13.301Z,101119.00
2019-02-18T03:22:46.051Z,101111.00
2019-02-18T03:25:32.681Z,101114.00
2019-02-18T03:28:35.114Z,101110.00
2019-02-18T03:31:22.135Z,101103.00
2019-02-18T03:34:02.342Z,101101.00
2019-02-18T03:36:35.012Z,101104.00
2019-02-18T03:39:10.207Z,101099.00
2019-02-18T03:41:43.035Z,101107.00
2019-02-18T03:44:16.695Z,101099.00
2019-02-18T03:46:50.797Z,101099.00
2019-02-18T03:49:23.615Z,101106.00
2019-02-18T03:51:57.583Z,101100.00
2019-02-18T03:54:30.413Z,101100.00
2019-02-18T03:57:03.195Z,101094.00
2019-02-18T03:59:36.454Z,101092.00
2019-02-18T04:02:09.174Z,101103.00
2019-02-18T04:04:42.365Z,101112.00
2019-02-18T04:07:15.140Z,101105.00
2019-02-18T04:09:49.164Z,101093.00
2019-02-18T04:12:22.128Z,101099.00
2019-02-18T04:14:55.433Z,101090.00
2019-02-18T04:17:29.532Z,101086.00
2019-02-18T04:20:02.725Z,101086.00
2019-02-18T04:22:35.482Z,101077.00
2019-02-18T04:25:09.121Z,101092.00
2019-02-18T04:27:41.914Z,101079.00
2019-02-18T04:30:14.750Z,101080.00
2019-02-18T04:32:47.587Z,101085.00
2019-02-18T04:35:21.449Z,101086.00
2019-02-18T04:37:54.106Z,101074.00
2019-02-18T04:40:27.827Z,101082.00
2019-02-18T04:43:00.534Z,101079.00
2019-02-18T04:45:33.233Z,101077.00
2019-02-18T04:48:06.447Z,101080.00
2019-02-18T04:50:40.324Z,101066.00
2019-02-18T04:53:13.278Z,101073.00
2019-02-18T04:55:45.992Z,101073.00
2019-02-18T04:58:20.225Z,101083.00
2019-02-18T05:00:52.986Z,101074.00
2019-02-18T05:03:25.892Z,101081.00
2019-02-18T05:05:59.025Z,101084.00
2019-02-18T05:08:31.960Z,101077.00
2019-02-18T05:11:04.840Z,101083.00
2019-02-18T05:13:37.400Z,101076.00
2019-02-18T05:16:10.209Z,101081.00
2019-02-18T05:18:43.061Z,101078.00
2019-02-18T05:21:16.037Z,101082.00
2019-02-18T05:23:48.860Z,101080.00
2019-02-18T05:26:22.700Z,101078.00
2019-02-18T05:28:55.300Z,101072.00
2019-02-18T05:31:28.221Z,101069.00
2019-02-18T05:34:01.186Z,101069.00
2019-02-18T05:36:34.203Z,101057.00
2019-02-18T05:39:17.457Z,101069.00
2019-02-18T05:41:42.621Z,101075.00
2019-02-18T05:44:15.781Z,101071.00
2019-02-18T05:46:48.770Z,101077.00
2019-02-18T05:49:21.351Z,101070.00
2019-02-18T05:51:54.228Z,101074.00
2019-02-18T05:54:27.279Z,101085.00
2019-02-18T05:57:00.110Z,101080.00
2019-02-18T05:59:33.894Z,101082.00
2019-02-18T06:02:06.718Z,101075.00
2019-02-18T06:04:40.594Z,101095.00
2019-02-18T06:07:13.287Z,101103.00
2019-02-18T06:09:49.564Z,101090.00
2019-02-18T06:12:22.330Z,101081.00
2019-02-18T06:14:55.341Z,101093.00
2019-02-18T06:17:28.211Z,101089.00
2019-02-18T06:20:01.091Z,101088.00
2019-02-18T06:22:33.855Z,101096.00
2019-02-18T06:25:07.130Z,101090.00
2019-02-18T06:27:39.878Z,101088.00
2019-02-18T06:30:13.831Z,101089.00
2019-02-18T06:32:46.826Z,101093.00
2019-02-18T06:35:19.614Z,101101.00
2019-02-18T06:37:52.595Z,101103.00
2019-02-18T06:40:25.389Z,101113.00
2019-02-18T06:42:59.813Z,101110.00
2019-02-18T06:45:42.792Z,101127.00
2019-02-18T06:48:20.080Z,101116.00
2019-02-18T06:50:52.687Z,101121.00
2019-02-18T06:53:25.480Z,101119.00
2019-02-18T06:55:58.341Z,101117.00
2019-02-18T06:58:35.996Z,101119.00
2019-02-18T07:01:10.104Z,101118.00
2019-02-18T07:03:47.186Z,101119.00
2019-02-18T07:06:39.254Z,101119.00
2019-02-18T07:09:25.553Z,101125.00
2019-02-18T07:11:59.311Z,101128.00
2019-02-18T07:14:32.366Z,101132.00
2019-02-18T07:17:05.054Z,101138.00
2019-02-18T07:19:38.138Z,101131.00
2019-02-18T07:22:10.902Z,101132.00
2019-02-18T07:24:44.023Z,101133.00
2019-02-18T07:27:17.751Z,101139.00
2019-02-18T07:29:50.367Z,101138.00
2019-02-18T07:32:23.267Z,101142.00
2019-02-18T07:34:55.894Z,101159.00
2019-02-18T07:37:28.719Z,101156.00
2019-02-18T07:40:02.162Z,101164.00
2019-02-18T07:42:35.455Z,101161.00
2019-02-18T07:45:09.901Z,101167.00
2019-02-18T07:47:42.844Z,101172.00
2019-02-18T07:50:20.606Z,101165.00
2019-02-18T07:52:50.806Z,101170.00
2019-02-18T07:55:24.588Z,101165.00
2019-02-18T07:57:58.272Z,101175.00
2019-02-18T08:00:31.241Z,101180.00
2019-02-18T08:03:03.906Z,101172.00
2019-02-18T08:05:36.647Z,101169.00
2019-02-18T08:08:10.216Z,101180.00
2019-02-18T08:10:42.987Z,101180.00
2019-02-18T08:13:15.988Z,101181.00
2019-02-18T08:15:48.780Z,101183.00
2019-02-18T08:18:21.673Z,101187.00
2019-02-18T08:20:55.169Z,101187.00
2019-02-18T08:23:27.802Z,101187.00
2019-02-18T08:26:00.753Z,101188.00
2019-02-18T08:28:33.876Z,101192.00
2019-02-18T08:31:07.888Z,101193.00
2019-02-18T08:33:40.734Z,101201.00
2019-02-18T08:36:14.701Z,101198.00
2019-02-18T08:38:47.492Z,101204.00
2019-02-18T08:41:20.421Z,101210.00
2019-02-18T08:43:53.381Z,101217.00
2019-02-18T08:46:25.963Z,101214.00
2019-02-18T08:48:58.638Z,101223.00
2019-02-18T08:51:31.896Z,101220.00
2019-02-18T08:54:04.540Z,101222.00
2019-02-18T08:56:37.574Z,101232.00
2019-02-18T08:59:11.100Z,101229.00
2019-02-18T09:01:43.878Z,101229.00
2019-02-18T09:04:16.688Z,101226.00
2019-02-18T09:06:49.377Z,101234.00
2019-02-18T09:09:22.295Z,101231.00
2019-02-18T09:11:54.954Z,101234.00
2019-02-18T09:14:27.787Z,101236.00
2019-02-18T09:17:00.475Z,101237.00
2019-02-18T09:19:33.167Z,101239.00
2019-02-18T09:22:23.817Z,101242.00
2019-02-18T09:24:57.711Z,101257.00
2019-02-18T09:27:30.852Z,101249.00
2019-02-18T09:30:03.526Z,101256.00
2019-02-18T09:32:36.240Z,101263.00
2019-02-18T09:35:09.575Z,101258.00
2019-02-18T09:37:42.418Z,101270.00
2019-02-18T09:40:15.615Z,101275.00
2019-02-18T09:42:48.409Z,101270.00
2019-02-18T09:45:21.578Z,101264.00
2019-02-18T09:47:54.525Z,101272.00
2019-02-18T09:50:27.551Z,101274.00
2019-02-18T09:53:02.423Z,101275.00
2019-02-18T09:55:34.561Z,101273.00
2019-02-18T09:58:07.345Z,101278.00
2019-02-18T10:00:40.535Z,101281.00
2019-02-18T10:03:13.297Z,101275.00
2019-02-18T10:05:46.427Z,101278.00
2019-02-18T10:08:19.283Z,101276.00
2019-02-18T10:10:55.939Z,101267.00
2019-02-18T10:13:26.504Z,101284.00
2019-02-18T10:15:59.271Z,101282.00
2019-02-18T10:18:32.258Z,101279.00
2019-02-18T10:21:04.977Z,101284.00
2019-02-18T10:23:37.993Z,101292.00
2019-02-18T10:26:10.944Z,101286.00
2019-02-18T10:28:44.065Z,101287.00
2019-02-18T10:31:16.790Z,101280.00
2019-02-18T10:33:49.858Z,101284.00
2019-02-18T10:36:22.805Z,101278.00
2019-02-18T10:38:56.030Z,101287.00
2019-02-18T10:41:28.933Z,101292.00
2019-02-18T10:44:02.070Z,101293.00
2019-02-18T10:46:35.254Z,101299.00
2019-02-18T10:49:18.987Z,101297.00
2019-02-18T10:51:42.107Z,101300.00
2019-02-18T10:54:15.228Z,101304.00
2019-02-18T10:56:47.863Z,101301.00
2019-02-18T10:59:20.772Z,101305.00
2019-02-18T11:01:53.641Z,101305.00
2019-02-18T11:04:26.436Z,101297.00
2019-02-18T11:06:59.813Z,101304.00
2019-02-18T11:09:32.674Z,101303.00
2019-02-18T11:12:05.569Z,101299.00
2019-02-18T11:14:38.401Z,101304.00
2019-02-18T11:17:11.319Z,101306.00
2019-02-18T11:19:44.086Z,101306.00
2019-02-18T11:22:16.911Z,101305.00
2019-02-18T11:24:50.718Z,101301.00
2019-02-18T11:27:23.402Z,101303.00
2019-02-18T11:29:56.257Z,101303.00
2019-02-18T11:32:29.436Z,101306.00
2019-02-18T11:35:02.452Z,101310.00
2019-02-18T11:37:35.324Z,101307.00
2019-02-18T11:40:21.569Z,101307.00
2019-02-18T11:42:54.556Z,101308.00
2019-02-18T11:45:27.663Z,101306.00
2019-02-18T11:48:01.979Z,101305.00
2019-02-18T11:50:34.869Z,101304.00
2019-02-18T11:53:08.204Z,101306.00
2019-02-18T11:55:41.006Z,101297.00
2019-02-18T11:58:13.881Z,101301.00
2019-02-18T12:00:46.881Z,101307.00
2019-02-18T12:03:19.669Z,101296.00
2019-02-18T12:05:52.646Z,101302.00
2019-02-18T12:08:25.412Z,101297.00
2019-02-18T12:10:58.852Z,101289.00
2019-02-18T12:13:31.474Z,101292.00
2019-02-18T12:16:04.180Z,101288.00
2019-02-18T12:18:37.145Z,101299.00
2019-02-18T12:21:10.137Z,101280.00
2019-02-18T12:23:43.393Z,101296.00
2019-02-18T12:26:16.437Z,101288.00
2019-02-18T12:28:49.530Z,101284.00
2019-02-18T12:31:22.322Z,101285.00
2019-02-18T12:33:55.232Z,101281.00
2019-02-18T12:36:28.094Z,101278.00
2019-02-18T12:39:01.039Z,101268.00
2019-02-18T12:41:33.695Z,101281.00
2019-02-18T12:44:06.629Z,101270.00
2019-02-18T12:46:39.610Z,101267.00
2019-02-18T12:49:12.948Z,101265.00
2019-02-18T12:51:45.952Z,101264.00
2019-02-18T12:54:19.164Z,101258.00
2019-02-18T12:56:52.148Z,101252.00
2019-02-18T12:59:25.977Z,101245.00
2019-02-18T13:01:58.980Z,101232.00
2019-02-18T13:04:32.761Z,101243.00
2019-02-18T13:07:05.812Z,101239.00
2019-02-18T13:09:38.754Z,101230.00
2019-02-18T13:12:11.514Z,101225.00
2019-02-18T13:14:44.424Z,101231.00
2019-02-18T13:17:17.513Z,101227.00
2019-02-18T13:19:50.484Z,101232.00
2019-02-18T13:22:23.380Z,101232.00
2019-02-18T13:24:56.128Z,101215.00
2019-02-18T13:27:29.045Z,101217.00
2019-02-18T13:30:02.227Z,101223.00
2019-02-18T13:32:34.994Z,101214.00
2019-02-18T13:35:09.389Z,101212.00
2019-02-18T13:37:42.210Z,101214.00
2019-02-18T13:40:17.259Z,101214.00
2019-02-18T13:42:50.458Z,101211.00
2019-02-18T13:45:23.427Z,101207.00
2019-02-18T13:47:56.628Z,101212.00
2019-02-18T13:50:29.399Z,101207.00
2019-02-18T13:53:02.312Z,101208.00
2019-02-18T13:55:35.659Z,101205.00
2019-02-18T13:58:08.760Z,101210.00
2019-02-18T14:00:41.896Z,101209.00
2019-02-18T14:03:14.744Z,101207.00
2019-02-18T14:05:47.849Z,101201.00
2019-02-18T14:08:20.800Z,101205.00
2019-02-18T14:10:53.615Z,101198.00
2019-02-18T14:13:26.679Z,101197.00
2019-02-18T14:16:00.327Z,101192.00
2019-02-18T14:18:32.809Z,101193.00
2019-02-18T14:21:05.439Z,101190.00
2019-02-18T14:23:38.404Z,101188.00
2019-02-18T14:26:11.330Z,101192.00
2019-02-18T14:28:44.794Z,101188.00
2019-02-18T14:31:17.566Z,101185.00
2019-02-18T14:33:50.552Z,101196.00
2019-02-18T14:36:23.337Z,101198.00
2019-02-18T14:38:56.927Z,101199.00
2019-02-18T14:41:29.857Z,101195.00
2019-02-18T14:44:02.709Z,101197.00
2019-02-18T14:46:36.159Z,101204.00
2019-02-18T14:49:09.066Z,101182.00
2019-02-18T14:51:42.387Z,101200.00
2019-02-18T14:54:15.278Z,101199.00
2019-02-18T14:56:49.276Z,101195.00
2019-02-18T14:59:22.061Z,101191.00
2019-02-18T15:01:55.224Z,101196.00
2019-02-18T15:04:28.045Z,101196.00
2019-02-18T15:07:00.822Z,101190.00
2019-02-18T15:09:34.318Z,101187.00
2019-02-18T15:12:07.354Z,101196.00
2019-02-18T15:14:40.486Z,101193.00
2019-02-18T15:17:13.262Z,101197.00
2019-02-18T15:19:46.283Z,101204.00
2019-02-18T15:22:19.303Z,101204.00
2019-02-18T15:24:52.329Z,101210.00
2019-02-18T15:27:25.267Z,101201.00
2019-02-18T15:29:58.285Z,101192.00
2019-02-18T15:32:31.086Z,101192.00
2019-02-18T15:35:04.598Z,101190.00
2019-02-18T15:37:37.607Z,101182.00
2019-02-18T15:40:12.584Z,101190.00
2019-02-18T15:42:45.068Z,101188.00
2019-02-18T15:45:18.722Z,101185.00
2019-02-18T15:47:51.470Z,101194.00
2019-02-18T15:50:26.213Z,101182.00
2019-02-18T15:52:58.853Z,101181.00
2019-02-18T15:55:31.811Z,101169.00
2019-02-18T15:58:04.746Z,101172.00
2019-02-18T16:00:38.263Z,101171.00
2019-02-18T16:03:11.454Z,101177.00
2019-02-18T16:05:44.227Z,101176.00
2019-02-18T16:08:17.386Z,101179.00
2019-02-18T16:10:50.288Z,101177.00
2019-02-18T16:13:23.163Z,101177.00
2019-02-18T16:15:55.961Z,101184.00
2019-02-18T16:18:28.919Z,101183.00
2019-02-18T16:21:01.731Z,101183.00
2019-02-18T16:23:35.275Z,101184.00
2019-02-18T16:26:08.266Z,101185.00
2019-02-18T16:28:41.101Z,101185.00
2019-02-18T16:31:14.021Z,101179.00
2019-02-18T16:33:46.864Z,101193.00
2019-02-18T16:36:19.881Z,101187.00
2019-02-18T16:38:52.651Z,101181.00
2019-02-18T16:41:26.414Z,101187.00
2019-02-18T16:43:59.343Z,101188.00
2019-02-18T16:46:32.400Z,101187.00
2019-02-18T16:49:05.523Z,101187.00
2019-02-18T16:51:39.365Z,101186.00
2019-02-18T16:54:12.410Z,101185.00
2019-02-18T16:56:45.613Z,101181.00
2019-02-18T16:59:18.571Z,101191.00
2019-02-18T17:01:51.562Z,101187.00
2019-02-18T17:04:27.233Z,101190.00
2019-02-18T17:06:58.134Z,101185.00
2019-02-18T17:09:31.087Z,101185.00
2019-02-18T17:12:04.344Z,101184.00
2019-02-18T17:14:37.291Z,101186.00
2019-02-18T17:17:09.866Z,101190.00
2019-02-18T17:19:43.110Z,101185.00
2019-02-18T17:22:16.298Z,101186.00
2019-02-18T17:24:49.257Z,101186.00
2019-02-18T17:27:22.205Z,101186.00
2019-02-18T17:29:54.921Z,101186.00
2019-02-18T17:32:27.678Z,101188.00
2019-02-18T17:35:00.610Z,101180.00
2019-02-18T17:37:33.626Z,101189.00
2019-02-18T17:40:07.175Z,101184.00
2019-02-18T17:42:39.731Z,101186.00
2019-02-18T17:45:14.558Z,101193.00
2019-02-18T17:47:47.653Z,101194.00
2019-02-18T17:50:20.554Z,101190.00
2019-02-18T17:52:53.567Z,101190.00
2019-02-18T17:55:26.327Z,101201.00
2019-02-18T17:57:59.431Z,101204.00
2019-02-18T18:00:33.255Z,101197.00
2019-02-18T18:03:06.596Z,101199.00
2019-02-18T18:05:39.299Z,101204.00
2019-02-18T18:08:12.227Z,101209.00
2019-02-18T18:13:15.483Z,101207.00
2019-02-18T18:15:48.378Z,101211.00
2019-02-18T18:18:21.736Z,101211.00
2019-02-18T18:20:54.421Z,101212.00
2019-02-18T18:23:27.410Z,101214.00
2019-02-18T18:26:00.003Z,101208.00
2019-02-18T18:28:32.897Z,101210.00
2019-02-18T18:31:05.754Z,101210.00
2019-02-18T18:33:38.372Z,101219.00
2019-02-18T18:36:11.374Z,101219.00
2019-02-18T18:38:44.059Z,101219.00
2019-02-18T18:41:17.007Z,101218.00
2019-02-18T18:43:49.850Z,101213.00
2019-02-18T18:46:22.791Z,101224.00
2019-02-18T18:48:55.559Z,101216.00
2019-02-18T18:51:28.145Z,101226.00
2019-02-18T18:54:01.429Z,101223.00
2019-02-18T18:56:34.142Z,101231.00
2019-02-18T18:59:07.330Z,101232.00
2019-02-18T19:01:40.375Z,101234.00
2019-02-18T19:04:13.430Z,101234.00
2019-02-18T19:06:47.141Z,101230.00
2019-02-18T19:09:19.862Z,101228.00
2019-02-18T19:11:52.947Z,101232.00
2019-02-18T19:14:25.635Z,101240.00
2019-02-18T19:16:58.562Z,101236.00
2019-02-18T19:19:31.438Z,101243.00
2019-02-18T19:22:04.380Z,101242.00
2019-02-18T19:24:37.319Z,101239.00
2019-02-18T19:27:10.368Z,101241.00
2019-02-18T19:29:43.232Z,101235.00
2019-02-18T19:32:16.277Z,101236.00
2019-02-18T19:34:49.112Z,101231.00
2019-02-18T19:37:21.969Z,101243.00
2019-02-18T19:39:54.711Z,101243.00
2019-02-18T19:42:28.504Z,101248.00
2019-02-18T19:45:01.485Z,101247.00
2019-02-18T19:47:34.260Z,101248.00
2019-02-18T19:50:07.862Z,101251.00
2019-02-18T19:52:40.640Z,101248.00
2019-02-18T19:55:16.081Z,101252.00
2019-02-18T19:57:48.885Z,101256.00
2019-02-18T20:00:22.222Z,101253.00
2019-02-18T20:02:54.837Z,101249.00
2019-02-18T20:05:27.751Z,101249.00
2019-02-18T20:08:01.962Z,101246.00
2019-02-18T20:10:34.642Z,101248.00
2019-02-18T20:13:07.699Z,101243.00
2019-02-18T20:15:40.607Z,101251.00
2019-02-18T20:18:13.840Z,101253.00
2019-02-18T20:20:46.847Z,101249.00
2019-02-18T20:23:19.576Z,101248.00
2019-02-18T20:25:52.529Z,101259.00
2019-02-18T20:28:25.344Z,101259.00
2019-02-18T20:30:58.580Z,101254.00
2019-02-18T20:33:31.352Z,101257.00
2019-02-18T20:36:04.510Z,101257.00
2019-02-18T20:38:37.280Z,101255.00
2019-02-18T20:41:10.737Z,101257.00
2019-02-18T20:43:43.645Z,101249.00
2019-02-18T20:46:16.622Z,101250.00
2019-02-18T20:48:49.411Z,101252.00
2019-02-18T20:51:22.360Z,101251.00
2019-02-18T20:53:56.534Z,101250.00
2019-02-18T20:56:29.504Z,101248.00
2019-02-18T20:59:02.385Z,101250.00
2019-02-18T21:01:35.190Z,101254.00
2019-02-18T21:04:08.096Z,101259.00
2019-02-18T21:06:40.809Z,101240.00
2019-02-18T21:09:13.917Z,101249.00
2019-02-18T21:11:46.581Z,101265.00
2019-02-18T21:14:19.429Z,101260.00
2019-02-18T21:16:52.364Z,101262.00
2019-02-18T21:19:25.397Z,101263.00
2019-02-18T21:21:58.142Z,101270.00
2019-02-18T21:24:31.001Z,101269.00
2019-02-18T21:27:03.802Z,101276.00
2019-02-18T21:29:36.578Z,101269.00
2019-02-18T21:32:09.378Z,101255.00
2019-02-18T21:34:42.283Z,101271.00
2019-02-18T21:37:14.951Z,101275.00
2019-02-18T21:39:47.928Z,101278.00
2019-02-18T21:42:21.004Z,101266.00
2019-02-18T21:44:53.876Z,101274.00
2019-02-18T21:47:26.696Z,101269.00
2019-02-18T21:49:59.813Z,101274.00
2019-02-18T21:52:32.465Z,101274.00
2019-02-18T21:55:05.421Z,101265.00
2019-02-18T21:57:38.334Z,101282.00
2019-02-18T22:00:27.099Z,101290.00
2019-02-18T22:03:00.081Z,101290.00
2019-02-18T22:05:32.939Z,101255.00
2019-02-18T22:08:05.863Z,101286.00
2019-02-18T22:10:38.718Z,101291.00
2019-02-18T22:13:11.496Z,101282.00
2019-02-18T22:15:44.830Z,101288.00
2019-02-18T22:18:17.594Z,101290.00
2019-02-18T22:20:50.242Z,101287.00
2019-02-18T22:23:23.595Z,101282.00
2019-02-18T22:25:56.544Z,101287.00
2019-02-18T22:28:29.269Z,101284.00
2019-02-18T22:31:02.272Z,101276.00
2019-02-18T22:33:34.968Z,101274.00
2019-02-18T22:36:08.506Z,101270.00
2019-02-18T22:38:41.353Z,101270.00
2019-02-18T22:41:15.684Z,101252.00
2019-02-18T22:43:48.473Z,101262.00
2019-02-18T22:46:21.261Z,101263.00
2019-02-18T22:48:54.141Z,101264.00
2019-02-18T22:51:27.105Z,101254.00
2019-02-18T22:54:00.893Z,101247.00
2019-02-18T22:56:33.889Z,101242.00
2019-02-18T22:59:06.693Z,101245.00
2019-02-18T23:01:39.674Z,101234.00
2019-02-18T23:04:12.470Z,101238.00
2019-02-18T23:06:45.428Z,101202.00
2019-02-18T23:09:18.180Z,101194.00
2019-02-18T23:11:50.956Z,101226.00
2019-02-18T23:14:24.499Z,101248.00
2019-02-18T23:16:57.418Z,101248.00
2019-02-18T23:19:30.172Z,101247.00
2019-02-18T23:22:03.159Z,101228.00
2019-02-18T23:24:35.925Z,101226.00
2019-02-18T23:27:08.585Z,101178.00
2019-02-18T23:29:42.333Z,101182.00
2019-02-18T23:32:15.142Z,101195.00
2019-02-18T23:34:47.878Z,101181.00
2019-02-18T23:37:20.688Z,101186.00
2019-02-18T23:39:53.594Z,101180.00
2019-02-18T23:42:26.225Z,101176.00
2019-02-18T23:44:59.583Z,101183.00
2019-02-18T23:47:32.415Z,101222.00
2019-02-18T23:50:05.396Z,101220.00
2019-02-18T23:52:38.127Z,101213.00
2019-02-18T23:55:11.857Z,101188.00
2019-02-18T23:57:45.368Z,101170.00
